sensor_id;sensor_type;location;lat;lon;timestamp;P1;durP1;ratioP1;P2;durP2;ratioP2
75504;SDS011;64085;54.974;73.410;2023-04-24T00:04:23;7.70;;;4.07;;
75504;SDS011;64085;54.974;73.410;2023-04-24T00:06:51;8.25;;;3.70;;
75504;SDS011;64085;54.974;73.410;2023-04-24T00:09:19;5.32;;;3.63;;
75504;SDS011;64085;54.974;73.410;2023-04-24T00:11:45;6.90;;;3.75;;
75504;SDS011;64085;54.974;73.410;2023-04-24T00:14:10;6.32;;;4.05;;
75504;SDS011;64085;54.974;73.410;2023-04-24T00:16:36;7.03;;;3.90;;
75504;SDS011;64085;54.974;73.410;2023-04-24T00:19:02;9.68;;;5.13;;
75504;SDS011;64085;54.974;73.410;2023-04-24T00:21:27;8.90;;;5.47;;
75504;SDS011;64085;54.974;73.410;2023-04-24T00:24:11;15.35;;;6.85;;
75504;SDS011;64085;54.974;73.410;2023-04-24T00:26:37;19.48;;;8.05;;
75504;SDS011;64085;54.974;73.410;2023-04-24T00:29:03;17.40;;;8.05;;
75504;SDS011;64085;54.974;73.410;2023-04-24T00:31:28;15.77;;;8.63;;
75504;SDS011;64085;54.974;73.410;2023-04-24T00:33:54;12.77;;;6.80;;
75504;SDS011;64085;54.974;73.410;2023-04-24T00:36:20;15.55;;;8.07;;
75504;SDS011;64085;54.974;73.410;2023-04-24T00:38:45;14.60;;;6.63;;
75504;SDS011;64085;54.974;73.410;2023-04-24T00:41:11;19.75;;;7.65;;
75504;SDS011;64085;54.974;73.410;2023-04-24T00:43:37;10.70;;;5.82;;
75504;SDS011;64085;54.974;73.410;2023-04-24T00:46:04;10.60;;;6.25;;
75504;SDS011;64085;54.974;73.410;2023-04-24T00:48:30;10.77;;;4.90;;
75504;SDS011;64085;54.974;73.410;2023-04-24T00:50:57;12.32;;;5.13;;
75504;SDS011;64085;54.974;73.410;2023-04-24T00:53:41;8.00;;;5.03;;
75504;SDS011;64085;54.974;73.410;2023-04-24T00:56:06;11.32;;;4.80;;
75504;SDS011;64085;54.974;73.410;2023-04-24T00:58:32;17.45;;;6.18;;
75504;SDS011;64085;54.974;73.410;2023-04-24T01:03:46;15.10;;;6.35;;
75504;SDS011;64085;54.974;73.410;2023-04-24T01:06:30;11.77;;;6.15;;
75504;SDS011;64085;54.974;73.410;2023-04-24T01:09:15;16.50;;;6.20;;
75504;SDS011;64085;54.974;73.410;2023-04-24T01:11:42;10.80;;;5.07;;
75504;SDS011;64085;54.974;73.410;2023-04-24T01:14:27;9.50;;;5.75;;
75504;SDS011;64085;54.974;73.410;2023-04-24T01:17:11;9.40;;;5.40;;
75504;SDS011;64085;54.974;73.410;2023-04-24T01:19:37;12.73;;;6.47;;
75504;SDS011;64085;54.974;73.410;2023-04-24T01:22:22;15.70;;;7.72;;
75504;SDS011;64085;54.974;73.410;2023-04-24T01:24:47;17.33;;;6.88;;
75504;SDS011;64085;54.974;73.410;2023-04-24T01:27:14;14.57;;;8.05;;
75504;SDS011;64085;54.974;73.410;2023-04-24T01:29:40;12.70;;;8.68;;
75504;SDS011;64085;54.974;73.410;2023-04-24T01:32:06;12.88;;;9.13;;
75504;SDS011;64085;54.974;73.410;2023-04-24T01:34:32;20.30;;;10.40;;
75504;SDS011;64085;54.974;73.410;2023-04-24T01:36:58;21.33;;;10.32;;
75504;SDS011;64085;54.974;73.410;2023-04-24T01:39:23;20.67;;;11.20;;
75504;SDS011;64085;54.974;73.410;2023-04-24T01:41:51;16.95;;;9.77;;
75504;SDS011;64085;54.974;73.410;2023-04-24T01:44:18;19.67;;;9.25;;
75504;SDS011;64085;54.974;73.410;2023-04-24T01:50:05;13.57;;;7.32;;
75504;SDS011;64085;54.974;73.410;2023-04-24T01:52:31;13.07;;;6.97;;
75504;SDS011;64085;54.974;73.410;2023-04-24T01:57:43;12.02;;;5.80;;
75504;SDS011;64085;54.974;73.410;2023-04-24T02:02:52;7.85;;;4.20;;
75504;SDS011;64085;54.974;73.410;2023-04-24T02:05:55;11.10;;;4.65;;
75504;SDS011;64085;54.974;73.410;2023-04-24T02:11:05;5.53;;;3.22;;
75504;SDS011;64085;54.974;73.410;2023-04-24T02:13:31;7.03;;;3.25;;
75504;SDS011;64085;54.974;73.410;2023-04-24T02:16:15;7.22;;;4.55;;
75504;SDS011;64085;54.974;73.410;2023-04-24T02:18:59;7.93;;;3.90;;
75504;SDS011;64085;54.974;73.410;2023-04-24T02:21:25;8.57;;;4.65;;
75504;SDS011;64085;54.974;73.410;2023-04-24T02:23:52;4.95;;;3.63;;
75504;SDS011;64085;54.974;73.410;2023-04-24T02:26:18;8.50;;;4.47;;
75504;SDS011;64085;54.974;73.410;2023-04-24T02:29:02;10.30;;;4.60;;
75504;SDS011;64085;54.974;73.410;2023-04-24T02:31:28;8.60;;;4.60;;
75504;SDS011;64085;54.974;73.410;2023-04-24T02:34:12;9.80;;;4.90;;
75504;SDS011;64085;54.974;73.410;2023-04-24T02:36:38;13.25;;;5.10;;
75504;SDS011;64085;54.974;73.410;2023-04-24T02:39:22;8.38;;;5.25;;
75504;SDS011;64085;54.974;73.410;2023-04-24T02:42:06;7.38;;;4.50;;
75504;SDS011;64085;54.974;73.410;2023-04-24T02:44:33;10.52;;;5.05;;
75504;SDS011;64085;54.974;73.410;2023-04-24T02:46:58;10.27;;;4.90;;
75504;SDS011;64085;54.974;73.410;2023-04-24T02:52:08;11.70;;;5.20;;
75504;SDS011;64085;54.974;73.410;2023-04-24T02:54:34;10.00;;;5.85;;
75504;SDS011;64085;54.974;73.410;2023-04-24T02:57:00;9.45;;;5.45;;
75504;SDS011;64085;54.974;73.410;2023-04-24T02:59:26;10.00;;;5.97;;
75504;SDS011;64085;54.974;73.410;2023-04-24T03:01:53;10.02;;;5.30;;
75504;SDS011;64085;54.974;73.410;2023-04-24T03:09:49;10.50;;;5.35;;
75504;SDS011;64085;54.974;73.410;2023-04-24T03:12:14;11.20;;;5.32;;
75504;SDS011;64085;54.974;73.410;2023-04-24T03:17:27;8.30;;;4.30;;
75504;SDS011;64085;54.974;73.410;2023-04-24T03:19:52;13.45;;;5.03;;
75504;SDS011;64085;54.974;73.410;2023-04-24T03:22:18;12.77;;;5.03;;
75504;SDS011;64085;54.974;73.410;2023-04-24T03:24:44;12.45;;;5.15;;
75504;SDS011;64085;54.974;73.410;2023-04-24T03:27:09;16.40;;;4.45;;
75504;SDS011;64085;54.974;73.410;2023-04-24T03:29:53;10.52;;;4.72;;
75504;SDS011;64085;54.974;73.410;2023-04-24T03:32:21;10.55;;;4.72;;
75504;SDS011;64085;54.974;73.410;2023-04-24T03:34:48;13.02;;;5.53;;
75504;SDS011;64085;54.974;73.410;2023-04-24T03:37:14;11.68;;;5.00;;
75504;SDS011;64085;54.974;73.410;2023-04-24T03:39:40;11.57;;;4.95;;
75504;SDS011;64085;54.974;73.410;2023-04-24T03:42:05;8.00;;;5.18;;
75504;SDS011;64085;54.974;73.410;2023-04-24T03:44:31;8.50;;;4.75;;
75504;SDS011;64085;54.974;73.410;2023-04-24T03:46:57;7.50;;;5.15;;
75504;SDS011;64085;54.974;73.410;2023-04-24T03:49:23;10.45;;;4.65;;
75504;SDS011;64085;54.974;73.410;2023-04-24T03:51:49;15.10;;;6.53;;
75504;SDS011;64085;54.974;73.410;2023-04-24T03:54:15;12.23;;;5.57;;
75504;SDS011;64085;54.974;73.410;2023-04-24T03:56:41;12.00;;;5.55;;
75504;SDS011;64085;54.974;73.410;2023-04-24T03:59:07;10.07;;;5.40;;
75504;SDS011;64085;54.974;73.410;2023-04-24T04:01:32;12.73;;;6.75;;
75504;SDS011;64085;54.974;73.410;2023-04-24T04:04:05;14.50;;;5.38;;
75504;SDS011;64085;54.974;73.410;2023-04-24T04:06:31;8.98;;;5.90;;
75504;SDS011;64085;54.974;73.410;2023-04-24T04:08:57;11.20;;;5.82;;
75504;SDS011;64085;54.974;73.410;2023-04-24T04:11:23;9.10;;;6.80;;
75504;SDS011;64085;54.974;73.410;2023-04-24T04:13:50;9.98;;;5.57;;
75504;SDS011;64085;54.974;73.410;2023-04-24T04:19:01;11.00;;;5.25;;
75504;SDS011;64085;54.974;73.410;2023-04-24T04:21:28;11.27;;;5.60;;
75504;SDS011;64085;54.974;73.410;2023-04-24T04:23:54;13.52;;;6.05;;
75504;SDS011;64085;54.974;73.410;2023-04-24T04:26:19;10.73;;;5.80;;
75504;SDS011;64085;54.974;73.410;2023-04-24T04:28:46;14.60;;;7.55;;
75504;SDS011;64085;54.974;73.410;2023-04-24T04:31:31;12.68;;;5.93;;
75504;SDS011;64085;54.974;73.410;2023-04-24T04:33:57;14.77;;;6.78;;
75504;SDS011;64085;54.974;73.410;2023-04-24T04:39:27;12.85;;;5.22;;
75504;SDS011;64085;54.974;73.410;2023-04-24T04:42:11;8.32;;;5.43;;
75504;SDS011;64085;54.974;73.410;2023-04-24T04:44:36;7.88;;;5.18;;
75504;SDS011;64085;54.974;73.410;2023-04-24T04:47:03;10.27;;;5.20;;
75504;SDS011;64085;54.974;73.410;2023-04-24T04:49:31;9.05;;;4.57;;
75504;SDS011;64085;54.974;73.410;2023-04-24T04:51:57;12.43;;;5.68;;
75504;SDS011;64085;54.974;73.410;2023-04-24T04:54:23;10.68;;;4.25;;
75504;SDS011;64085;54.974;73.410;2023-04-24T04:56:51;6.90;;;3.80;;
75504;SDS011;64085;54.974;73.410;2023-04-24T04:59:35;7.63;;;4.28;;
75504;SDS011;64085;54.974;73.410;2023-04-24T05:02:02;5.45;;;4.20;;
75504;SDS011;64085;54.974;73.410;2023-04-24T05:04:28;6.00;;;3.75;;
75504;SDS011;64085;54.974;73.410;2023-04-24T05:06:53;8.20;;;4.20;;
75504;SDS011;64085;54.974;73.410;2023-04-24T05:09:19;9.15;;;4.57;;
75504;SDS011;64085;54.974;73.410;2023-04-24T05:12:03;9.15;;;4.45;;
75504;SDS011;64085;54.974;73.410;2023-04-24T05:17:32;5.10;;;3.50;;
75504;SDS011;64085;54.974;73.410;2023-04-24T05:19:57;4.70;;;3.92;;
75504;SDS011;64085;54.974;73.410;2023-04-24T05:22:23;9.50;;;4.63;;
75504;SDS011;64085;54.974;73.410;2023-04-24T05:27:33;6.65;;;4.20;;
75504;SDS011;64085;54.974;73.410;2023-04-24T05:29:59;6.88;;;4.18;;
75504;SDS011;64085;54.974;73.410;2023-04-24T05:32:25;10.18;;;4.40;;
75504;SDS011;64085;54.974;73.410;2023-04-24T05:37:36;5.07;;;3.92;;
75504;SDS011;64085;54.974;73.410;2023-04-24T05:40:02;5.85;;;3.80;;
75504;SDS011;64085;54.974;73.410;2023-04-24T05:42:30;7.03;;;4.00;;
75504;SDS011;64085;54.974;73.410;2023-04-24T05:44:55;6.18;;;3.90;;
75504;SDS011;64085;54.974;73.410;2023-04-24T05:47:21;7.35;;;4.30;;
75504;SDS011;64085;54.974;73.410;2023-04-24T05:49:47;6.18;;;3.92;;
75504;SDS011;64085;54.974;73.410;2023-04-24T05:52:13;9.20;;;3.55;;
75504;SDS011;64085;54.974;73.410;2023-04-24T05:54:39;14.77;;;3.55;;
75504;SDS011;64085;54.974;73.410;2023-04-24T05:57:04;4.28;;;3.58;;
75504;SDS011;64085;54.974;73.410;2023-04-24T05:59:36;6.20;;;3.83;;
75504;SDS011;64085;54.974;73.410;2023-04-24T06:02:06;4.72;;;3.38;;
75504;SDS011;64085;54.974;73.410;2023-04-24T06:04:32;4.55;;;3.20;;
75504;SDS011;64085;54.974;73.410;2023-04-24T06:10:01;4.53;;;3.42;;
75504;SDS011;64085;54.974;73.410;2023-04-24T06:12:26;7.25;;;4.10;;
75504;SDS011;64085;54.974;73.410;2023-04-24T06:15:10;10.73;;;3.78;;
75504;SDS011;64085;54.974;73.410;2023-04-24T06:17:36;8.35;;;5.07;;
75504;SDS011;64085;54.974;73.410;2023-04-24T06:20:39;11.95;;;5.70;;
75504;SDS011;64085;54.974;73.410;2023-04-24T06:23:23;12.82;;;6.13;;
75504;SDS011;64085;54.974;73.410;2023-04-24T06:25:49;7.97;;;5.00;;
75504;SDS011;64085;54.974;73.410;2023-04-24T06:28:15;10.40;;;4.78;;
75504;SDS011;64085;54.974;73.410;2023-04-24T06:30:40;11.10;;;7.03;;
75504;SDS011;64085;54.974;73.410;2023-04-24T06:33:06;9.98;;;4.22;;
75504;SDS011;64085;54.974;73.410;2023-04-24T06:38:16;5.10;;;3.00;;
75504;SDS011;64085;54.974;73.410;2023-04-24T06:41:00;6.40;;;2.83;;
75504;SDS011;64085;54.974;73.410;2023-04-24T06:43:26;4.78;;;3.10;;
75504;SDS011;64085;54.974;73.410;2023-04-24T06:46:10;14.13;;;5.25;;
75504;SDS011;64085;54.974;73.410;2023-04-24T06:48:37;11.10;;;5.57;;
75504;SDS011;64085;54.974;73.410;2023-04-24T06:51:02;12.77;;;5.60;;
75504;SDS011;64085;54.974;73.410;2023-04-24T06:53:28;13.95;;;5.63;;
75504;SDS011;64085;54.974;73.410;2023-04-24T06:55:54;14.88;;;5.40;;
75504;SDS011;64085;54.974;73.410;2023-04-24T06:58:19;13.07;;;4.07;;
75504;SDS011;64085;54.974;73.410;2023-04-24T07:00:45;6.70;;;3.25;;
75504;SDS011;64085;54.974;73.410;2023-04-24T07:03:11;5.63;;;3.05;;
75504;SDS011;64085;54.974;73.410;2023-04-24T07:05:55;6.93;;;3.33;;
75504;SDS011;64085;54.974;73.410;2023-04-24T07:08:21;8.98;;;3.88;;
75504;SDS011;64085;54.974;73.410;2023-04-24T07:10:48;12.10;;;4.90;;
75504;SDS011;64085;54.974;73.410;2023-04-24T07:13:15;5.88;;;3.45;;
75504;SDS011;64085;54.974;73.410;2023-04-24T07:19:03;26.25;;;6.05;;
75504;SDS011;64085;54.974;73.410;2023-04-24T07:21:47;27.58;;;5.97;;
75504;SDS011;64085;54.974;73.410;2023-04-24T07:24:13;17.42;;;5.22;;
75504;SDS011;64085;54.974;73.410;2023-04-24T07:26:57;8.40;;;2.88;;
75504;SDS011;64085;54.974;73.410;2023-04-24T07:32:27;11.88;;;4.25;;
75504;SDS011;64085;54.974;73.410;2023-04-24T07:34:52;7.13;;;3.03;;
75504;SDS011;64085;54.974;73.410;2023-04-24T07:37:18;11.40;;;3.70;;
75504;SDS011;64085;54.974;73.410;2023-04-24T07:39:44;11.73;;;3.95;;
75504;SDS011;64085;54.974;73.410;2023-04-24T07:42:10;18.55;;;4.45;;
75504;SDS011;64085;54.974;73.410;2023-04-24T07:44:35;9.13;;;3.70;;
75504;SDS011;64085;54.974;73.410;2023-04-24T07:47:01;9.38;;;3.95;;
75504;SDS011;64085;54.974;73.410;2023-04-24T07:49:27;14.68;;;3.55;;
75504;SDS011;64085;54.974;73.410;2023-04-24T07:51:53;11.98;;;4.68;;
75504;SDS011;64085;54.974;73.410;2023-04-24T07:54:36;13.57;;;5.20;;
75504;SDS011;64085;54.974;73.410;2023-04-24T07:57:02;13.02;;;5.10;;
75504;SDS011;64085;54.974;73.410;2023-04-24T07:59:46;10.90;;;4.75;;
75504;SDS011;64085;54.974;73.410;2023-04-24T08:02:12;6.63;;;2.55;;
75504;SDS011;64085;54.974;73.410;2023-04-24T08:04:37;6.93;;;3.45;;
75504;SDS011;64085;54.974;73.410;2023-04-24T08:07:03;5.65;;;3.47;;
75504;SDS011;64085;54.974;73.410;2023-04-24T08:09:29;14.10;;;8.00;;
75504;SDS011;64085;54.974;73.410;2023-04-24T08:11:55;13.75;;;6.60;;
75504;SDS011;64085;54.974;73.410;2023-04-24T08:14:21;23.55;;;8.02;;
75504;SDS011;64085;54.974;73.410;2023-04-24T08:16:47;15.23;;;7.20;;
75504;SDS011;64085;54.974;73.410;2023-04-24T08:19:13;14.48;;;6.75;;
75504;SDS011;64085;54.974;73.410;2023-04-24T08:21:38;19.17;;;5.80;;
75504;SDS011;64085;54.974;73.410;2023-04-24T08:24:04;24.17;;;6.60;;
75504;SDS011;64085;54.974;73.410;2023-04-24T08:26:32;13.13;;;4.68;;
75504;SDS011;64085;54.974;73.410;2023-04-24T08:28:58;7.05;;;3.10;;
75504;SDS011;64085;54.974;73.410;2023-04-24T08:35:04;9.55;;;5.85;;
75504;SDS011;64085;54.974;73.410;2023-04-24T08:37:30;4.47;;;2.75;;
75504;SDS011;64085;54.974;73.410;2023-04-24T08:39:55;8.93;;;3.38;;
75504;SDS011;64085;54.974;73.410;2023-04-24T08:42:21;4.75;;;2.50;;
75504;SDS011;64085;54.974;73.410;2023-04-24T08:44:48;4.53;;;2.72;;
75504;SDS011;64085;54.974;73.410;2023-04-24T08:47:14;4.50;;;3.53;;
75504;SDS011;64085;54.974;73.410;2023-04-24T08:52:27;3.85;;;2.47;;
75504;SDS011;64085;54.974;73.410;2023-04-24T08:54:54;6.75;;;2.92;;
75504;SDS011;64085;54.974;73.410;2023-04-24T08:57:20;8.38;;;4.63;;
75504;SDS011;64085;54.974;73.410;2023-04-24T09:02:31;5.72;;;3.05;;
75504;SDS011;64085;54.974;73.410;2023-04-24T09:04:59;4.50;;;2.95;;
75504;SDS011;64085;54.974;73.410;2023-04-24T09:07:26;2.95;;;2.58;;
75504;SDS011;64085;54.974;73.410;2023-04-24T09:10:13;5.63;;;3.15;;
75504;SDS011;64085;54.974;73.410;2023-04-24T09:12:40;3.83;;;1.88;;
75504;SDS011;64085;54.974;73.410;2023-04-24T09:15:07;4.88;;;2.00;;
75504;SDS011;64085;54.974;73.410;2023-04-24T09:20:17;5.95;;;2.03;;
75504;SDS011;64085;54.974;73.410;2023-04-24T09:23:02;5.65;;;2.80;;
75504;SDS011;64085;54.974;73.410;2023-04-24T09:25:34;2.85;;;1.88;;
75504;SDS011;64085;54.974;73.410;2023-04-24T09:28:03;5.15;;;1.70;;
75504;SDS011;64085;54.974;73.410;2023-04-24T09:33:36;4.82;;;2.10;;
75504;SDS011;64085;54.974;73.410;2023-04-24T09:36:02;3.65;;;1.55;;
75504;SDS011;64085;54.974;73.410;2023-04-24T09:38:46;4.45;;;2.10;;
75504;SDS011;64085;54.974;73.410;2023-04-24T09:41:13;3.65;;;1.60;;
75504;SDS011;64085;54.974;73.410;2023-04-24T09:43:39;4.07;;;1.88;;
75504;SDS011;64085;54.974;73.410;2023-04-24T09:46:30;4.93;;;1.73;;
75504;SDS011;64085;54.974;73.410;2023-04-24T09:49:15;4.47;;;1.70;;
75504;SDS011;64085;54.974;73.410;2023-04-24T09:51:42;5.10;;;1.88;;
75504;SDS011;64085;54.974;73.410;2023-04-24T09:54:26;4.55;;;2.20;;
75504;SDS011;64085;54.974;73.410;2023-04-24T09:56:51;10.27;;;2.67;;
75504;SDS011;64085;54.974;73.410;2023-04-24T09:59:18;13.15;;;2.50;;
75504;SDS011;64085;54.974;73.410;2023-04-24T10:02:03;8.55;;;2.30;;
75504;SDS011;64085;54.974;73.410;2023-04-24T10:04:54;6.55;;;2.78;;
75504;SDS011;64085;54.974;73.410;2023-04-24T10:07:21;10.48;;;3.45;;
75504;SDS011;64085;54.974;73.410;2023-04-24T10:09:47;6.40;;;2.08;;
75504;SDS011;64085;54.974;73.410;2023-04-24T10:12:13;4.10;;;1.73;;
75504;SDS011;64085;54.974;73.410;2023-04-24T10:14:40;2.80;;;1.58;;
75504;SDS011;64085;54.974;73.410;2023-04-24T10:17:06;3.50;;;1.90;;
75504;SDS011;64085;54.974;73.410;2023-04-24T10:19:32;6.28;;;1.73;;
75504;SDS011;64085;54.974;73.410;2023-04-24T10:22:17;2.42;;;1.33;;
75504;SDS011;64085;54.974;73.410;2023-04-24T10:25:02;7.20;;;1.55;;
75504;SDS011;64085;54.974;73.410;2023-04-24T10:27:30;5.38;;;1.10;;
75504;SDS011;64085;54.974;73.410;2023-04-24T10:29:57;5.20;;;1.67;;
75504;SDS011;64085;54.974;73.410;2023-04-24T10:35:08;6.90;;;1.75;;
75504;SDS011;64085;54.974;73.410;2023-04-24T10:40:32;11.80;;;1.83;;
75504;SDS011;64085;54.974;73.410;2023-04-24T10:42:59;5.45;;;1.55;;
75504;SDS011;64085;54.974;73.410;2023-04-24T10:45:27;7.85;;;1.38;;
75504;SDS011;64085;54.974;73.410;2023-04-24T10:48:11;5.72;;;1.58;;
75504;SDS011;64085;54.974;73.410;2023-04-24T10:50:58;8.48;;;1.60;;
75504;SDS011;64085;54.974;73.410;2023-04-24T10:53:27;8.05;;;1.38;;
75504;SDS011;64085;54.974;73.410;2023-04-24T10:56:04;2.78;;;1.20;;
75504;SDS011;64085;54.974;73.410;2023-04-24T10:58:41;4.63;;;1.70;;
75504;SDS011;64085;54.974;73.410;2023-04-24T11:01:32;2.28;;;1.10;;
75504;SDS011;64085;54.974;73.410;2023-04-24T11:04:01;5.78;;;1.70;;
75504;SDS011;64085;54.974;73.410;2023-04-24T11:06:29;3.28;;;1.23;;
75504;SDS011;64085;54.974;73.410;2023-04-24T11:09:14;5.60;;;1.50;;
75504;SDS011;64085;54.974;73.410;2023-04-24T11:11:44;2.05;;;1.17;;
75504;SDS011;64085;54.974;73.410;2023-04-24T11:14:13;3.55;;;0.98;;
75504;SDS011;64085;54.974;73.410;2023-04-24T11:19:20;4.13;;;1.00;;
75504;SDS011;64085;54.974;73.410;2023-04-24T11:21:54;2.45;;;1.00;;
75504;SDS011;64085;54.974;73.410;2023-04-24T11:24:22;2.00;;;1.17;;
75504;SDS011;64085;54.974;73.410;2023-04-24T11:32:29;5.68;;;1.20;;
75504;SDS011;64085;54.974;73.410;2023-04-24T11:35:06;7.00;;;1.20;;
75504;SDS011;64085;54.974;73.410;2023-04-24T11:40:28;6.80;;;1.98;;
75504;SDS011;64085;54.974;73.410;2023-04-24T11:42:54;4.95;;;1.75;;
75504;SDS011;64085;54.974;73.410;2023-04-24T11:45:25;6.85;;;1.63;;
75504;SDS011;64085;54.974;73.410;2023-04-24T11:47:52;4.18;;;1.02;;
75504;SDS011;64085;54.974;73.410;2023-04-24T11:50:18;15.45;;;3.20;;
75504;SDS011;64085;54.974;73.410;2023-04-24T11:52:45;11.10;;;2.25;;
75504;SDS011;64085;54.974;73.410;2023-04-24T11:55:31;13.70;;;2.85;;
75504;SDS011;64085;54.974;73.410;2023-04-24T11:58:16;6.35;;;2.13;;
75504;SDS011;64085;54.974;73.410;2023-04-24T12:00:53;7.95;;;1.48;;
75504;SDS011;64085;54.974;73.410;2023-04-24T12:03:22;6.32;;;1.33;;
75504;SDS011;64085;54.974;73.410;2023-04-24T12:05:47;6.25;;;1.50;;
75504;SDS011;64085;54.974;73.410;2023-04-24T12:08:26;6.30;;;1.42;;
75504;SDS011;64085;54.974;73.410;2023-04-24T12:10:53;6.53;;;1.50;;
75504;SDS011;64085;54.974;73.410;2023-04-24T12:13:19;3.33;;;0.98;;
75504;SDS011;64085;54.974;73.410;2023-04-24T12:16:03;4.13;;;2.03;;
75504;SDS011;64085;54.974;73.410;2023-04-24T12:18:48;5.63;;;1.20;;
75504;SDS011;64085;54.974;73.410;2023-04-24T12:25:01;3.40;;;1.10;;
75504;SDS011;64085;54.974;73.410;2023-04-24T12:27:31;3.65;;;1.35;;
75504;SDS011;64085;54.974;73.410;2023-04-24T12:30:02;2.20;;;1.27;;
75504;SDS011;64085;54.974;73.410;2023-04-24T12:32:31;3.38;;;1.40;;
75504;SDS011;64085;54.974;73.410;2023-04-24T12:34:57;4.15;;;2.47;;
75504;SDS011;64085;54.974;73.410;2023-04-24T12:37:26;5.75;;;1.30;;
75504;SDS011;64085;54.974;73.410;2023-04-24T12:40:06;3.15;;;1.20;;
75504;SDS011;64085;54.974;73.410;2023-04-24T12:45:18;3.42;;;1.23;;
75504;SDS011;64085;54.974;73.410;2023-04-24T12:47:44;4.90;;;1.35;;
75504;SDS011;64085;54.974;73.410;2023-04-24T12:50:14;4.65;;;1.80;;
75504;SDS011;64085;54.974;73.410;2023-04-24T12:52:41;4.90;;;1.38;;
75504;SDS011;64085;54.974;73.410;2023-04-24T12:55:25;5.35;;;1.55;;
75504;SDS011;64085;54.974;73.410;2023-04-24T12:57:51;4.38;;;1.38;;
75504;SDS011;64085;54.974;73.410;2023-04-24T13:00:18;2.30;;;1.17;;
75504;SDS011;64085;54.974;73.410;2023-04-24T13:02:43;1.90;;;1.13;;
75504;SDS011;64085;54.974;73.410;2023-04-24T13:05:09;2.55;;;1.05;;
75504;SDS011;64085;54.974;73.410;2023-04-24T13:07:53;1.75;;;1.33;;
75504;SDS011;64085;54.974;73.410;2023-04-24T13:10:56;3.70;;;1.40;;
75504;SDS011;64085;54.974;73.410;2023-04-24T13:13:22;5.15;;;1.50;;
75504;SDS011;64085;54.974;73.410;2023-04-24T13:15:47;3.30;;;1.27;;
75504;SDS011;64085;54.974;73.410;2023-04-24T13:18:13;2.03;;;1.80;;
75504;SDS011;64085;54.974;73.410;2023-04-24T13:26:26;2.88;;;0.90;;
75504;SDS011;64085;54.974;73.410;2023-04-24T13:28:52;1.88;;;1.45;;
75504;SDS011;64085;54.974;73.410;2023-04-24T13:31:18;4.65;;;1.38;;
75504;SDS011;64085;54.974;73.410;2023-04-24T13:34:02;3.10;;;1.38;;
75504;SDS011;64085;54.974;73.410;2023-04-24T13:36:47;2.83;;;1.13;;
75504;SDS011;64085;54.974;73.410;2023-04-24T13:39:12;2.88;;;1.73;;
75504;SDS011;64085;54.974;73.410;2023-04-24T13:41:38;4.15;;;1.60;;
75504;SDS011;64085;54.974;73.410;2023-04-24T13:44:05;4.00;;;1.02;;
75504;SDS011;64085;54.974;73.410;2023-04-24T13:46:31;3.00;;;2.25;;
75504;SDS011;64085;54.974;73.410;2023-04-24T13:48:57;3.20;;;1.60;;
75504;SDS011;64085;54.974;73.410;2023-04-24T13:52:01;6.38;;;1.83;;
75504;SDS011;64085;54.974;73.410;2023-04-24T13:54:27;4.80;;;1.23;;
75504;SDS011;64085;54.974;73.410;2023-04-24T13:56:55;2.75;;;1.88;;
75504;SDS011;64085;54.974;73.410;2023-04-24T13:59:22;3.33;;;2.22;;
75504;SDS011;64085;54.974;73.410;2023-04-24T14:01:48;4.20;;;2.45;;
75504;SDS011;64085;54.974;73.410;2023-04-24T14:04:32;5.57;;;2.75;;
75504;SDS011;64085;54.974;73.410;2023-04-24T14:07:16;4.43;;;1.75;;
75504;SDS011;64085;54.974;73.410;2023-04-24T14:09:42;7.18;;;2.05;;
75504;SDS011;64085;54.974;73.410;2023-04-24T14:12:08;4.75;;;2.35;;
75504;SDS011;64085;54.974;73.410;2023-04-24T14:14:52;5.20;;;2.75;;
75504;SDS011;64085;54.974;73.410;2023-04-24T14:20:40;2.58;;;1.85;;
75504;SDS011;64085;54.974;73.410;2023-04-24T14:23:24;4.82;;;2.50;;
75504;SDS011;64085;54.974;73.410;2023-04-24T14:25:49;3.95;;;1.83;;
75504;SDS011;64085;54.974;73.410;2023-04-24T14:28:20;5.03;;;2.45;;
75504;SDS011;64085;54.974;73.410;2023-04-24T14:30:49;9.30;;;2.20;;
75504;SDS011;64085;54.974;73.410;2023-04-24T14:33:15;4.90;;;2.45;;
75504;SDS011;64085;54.974;73.410;2023-04-24T14:38:27;6.75;;;2.22;;
75504;SDS011;64085;54.974;73.410;2023-04-24T14:41:11;5.22;;;2.28;;
75504;SDS011;64085;54.974;73.410;2023-04-24T14:43:37;5.68;;;2.33;;
75504;SDS011;64085;54.974;73.410;2023-04-24T14:49:06;5.35;;;2.28;;
75504;SDS011;64085;54.974;73.410;2023-04-24T14:51:34;6.25;;;3.00;;
75504;SDS011;64085;54.974;73.410;2023-04-24T14:54:01;6.25;;;2.55;;
75504;SDS011;64085;54.974;73.410;2023-04-24T14:56:26;7.22;;;3.30;;
75504;SDS011;64085;54.974;73.410;2023-04-24T14:58:52;5.93;;;1.85;;
75504;SDS011;64085;54.974;73.410;2023-04-24T15:01:18;4.10;;;2.38;;
75504;SDS011;64085;54.974;73.410;2023-04-24T15:03:44;4.45;;;2.17;;
75504;SDS011;64085;54.974;73.410;2023-04-24T15:06:10;6.55;;;2.55;;
75504;SDS011;64085;54.974;73.410;2023-04-24T15:08:57;7.32;;;2.65;;
75504;SDS011;64085;54.974;73.410;2023-04-24T15:11:23;5.15;;;2.45;;
75504;SDS011;64085;54.974;73.410;2023-04-24T15:13:49;7.45;;;2.42;;
75504;SDS011;64085;54.974;73.410;2023-04-24T15:16:15;4.68;;;2.50;;
75504;SDS011;64085;54.974;73.410;2023-04-24T15:18:41;5.53;;;3.00;;
75504;SDS011;64085;54.974;73.410;2023-04-24T15:21:06;8.32;;;3.58;;
75504;SDS011;64085;54.974;73.410;2023-04-24T15:23:32;7.15;;;3.13;;
75504;SDS011;64085;54.974;73.410;2023-04-24T15:25:58;9.73;;;2.72;;
75504;SDS011;64085;54.974;73.410;2023-04-24T15:28:42;6.38;;;3.47;;
75504;SDS011;64085;54.974;73.410;2023-04-24T15:31:07;7.63;;;4.05;;
75504;SDS011;64085;54.974;73.410;2023-04-24T15:33:53;5.78;;;3.15;;
75504;SDS011;64085;54.974;73.410;2023-04-24T15:36:18;6.88;;;3.22;;
75504;SDS011;64085;54.974;73.410;2023-04-24T15:38:46;5.65;;;3.10;;
75504;SDS011;64085;54.974;73.410;2023-04-24T15:41:12;7.72;;;2.42;;
75504;SDS011;64085;54.974;73.410;2023-04-24T15:43:38;7.45;;;3.72;;
75504;SDS011;64085;54.974;73.410;2023-04-24T15:46:06;5.38;;;2.75;;
75504;SDS011;64085;54.974;73.410;2023-04-24T15:48:32;5.85;;;2.90;;
75504;SDS011;64085;54.974;73.410;2023-04-24T15:50:58;5.32;;;3.08;;
75504;SDS011;64085;54.974;73.410;2023-04-24T15:53:24;7.13;;;3.30;;
75504;SDS011;64085;54.974;73.410;2023-04-24T15:55:50;6.93;;;3.72;;
75504;SDS011;64085;54.974;73.410;2023-04-24T15:58:35;8.43;;;3.33;;
75504;SDS011;64085;54.974;73.410;2023-04-24T16:01:01;6.50;;;2.80;;
75504;SDS011;64085;54.974;73.410;2023-04-24T16:03:26;6.30;;;3.58;;
75504;SDS011;64085;54.974;73.410;2023-04-24T16:05:52;7.95;;;3.63;;
75504;SDS011;64085;54.974;73.410;2023-04-24T16:08:38;6.47;;;3.60;;
75504;SDS011;64085;54.974;73.410;2023-04-24T16:11:03;5.18;;;3.25;;
75504;SDS011;64085;54.974;73.410;2023-04-24T16:13:30;6.50;;;2.17;;
75504;SDS011;64085;54.974;73.410;2023-04-24T16:15:58;3.88;;;2.17;;
75504;SDS011;64085;54.974;73.410;2023-04-24T16:18:42;4.32;;;1.70;;
75504;SDS011;64085;54.974;73.410;2023-04-24T16:21:08;5.93;;;2.50;;
75504;SDS011;64085;54.974;73.410;2023-04-24T16:23:52;3.45;;;2.78;;
75504;SDS011;64085;54.974;73.410;2023-04-24T16:26:18;5.50;;;2.00;;
75504;SDS011;64085;54.974;73.410;2023-04-24T16:28:44;5.13;;;1.63;;
75504;SDS011;64085;54.974;73.410;2023-04-24T16:31:09;4.55;;;1.50;;
75504;SDS011;64085;54.974;73.410;2023-04-24T16:36:20;5.03;;;1.20;;
75504;SDS011;64085;54.974;73.410;2023-04-24T16:39:04;3.22;;;1.88;;